»·PEaware :: RNGR824 KNGP-KNGP

RNGR824 :: KNGP-KNGP

FLIGHT INFORMATION

Flight Status: Arrived
Operator: Unknown
More flights by this operator :: More flights under this callsign
Pilot: USN Avenger (31125)
Aircraft: BEECH AIRCRAFT T-6A TEXAN
(TEX2)
More flights by this aircraft type
Origin: KNGP Corpus Christi NAS/Truax
United States
Destination: KNGP Corpus Christi NAS/Truax
United States
More flights between these airports :: More routes between these airports
Route: SOUTH MUSTANG KNGW
File this flight plan on PilotEdge
Remarks: 13R PLEASE
Altitude:
(Current/Filed)
2,500ft
Speed:
(Current/Filed)
240kts
Departed: 15-Nov-23 09:05 AM
Arrived: 15-Nov-23 10:07 AM
Distance/Time
Traveled:
0nm/1:02
Distance/Time
To Go:
Arrived

Flight Plot

Page will automatically refresh every two minutes.

Flight plan parsing failed; only flown route is shown


Map Options




Map Legend


Flown Route
Filed Route
Departure Airport
Arrival Airport
Navaid (VOR, NDB)
Fix

Horizontal Profiles

Position Reports

Time Latitude Longitude Heading Altitude Ground
Speed
15-Nov-23 09:00 27.698516 -97.284273 158 22ft 2kts
15-Nov-23 09:01 27.699338 -97.286012 319 22ft 12kts
15-Nov-23 09:02 27.696595 -97.289728 224 22ft 19kts
15-Nov-23 09:03 27.695361 -97.291227 224 22ft 4kts
15-Nov-23 09:04 27.693747 -97.290032 133 22ft 60kts
15-Nov-23 09:05 27.668285 -97.256687 117 725ft 192kts
15-Nov-23 09:06 27.703392 -97.232242 348 668ft 194kts
15-Nov-23 09:07 27.755395 -97.248653 347 651ft 198kts
15-Nov-23 09:08 27.809330 -97.262856 352 630ft 197kts
15-Nov-23 09:09 27.863014 -97.273173 351 639ft 201kts
15-Nov-23 09:10 27.916652 -97.282236 358 1627ft 196kts
15-Nov-23 09:11 27.970526 -97.293700 340 3869ft 207kts
15-Nov-23 09:12 28.026527 -97.321475 332 4755ft 253kts
15-Nov-23 09:13 28.088098 -97.362113 324 4466ft 255kts
15-Nov-23 09:14 28.137281 -97.415853 307 4245ft 249kts
15-Nov-23 09:15 28.189307 -97.465563 330 4774ft 255kts
15-Nov-23 09:16 28.252020 -97.507181 330 4707ft 264kts
15-Nov-23 09:17 28.309798 -97.548786 329 4800ft 246kts
15-Nov-23 09:18 28.369677 -97.591708 325 4487ft 255kts
15-Nov-23 09:19 28.424737 -97.638986 324 4575ft 250kts
15-Nov-23 09:20 28.482185 -97.682994 331 5069ft 245kts
15-Nov-23 09:21 28.543679 -97.715182 339 4705ft 235kts
15-Nov-23 09:22 28.606294 -97.726733 3 2745ft 223kts
15-Nov-23 09:23 28.652636 -97.701804 95 1169ft 186kts
15-Nov-23 09:24 28.632998 -97.645098 112 1166ft 189kts
15-Nov-23 09:25 28.614832 -97.589970 87 1112ft 171kts
15-Nov-23 09:26 28.629972 -97.616075 284 1200ft 127kts
15-Nov-23 09:27 28.617967 -97.608195 108 374ft 114kts
15-Nov-23 09:28 28.619498 -97.580279 352 1193ft 117kts
15-Nov-23 09:29 28.631833 -97.605850 182 385ft 114kts
15-Nov-23 09:30 28.633449 -97.585800 334 1425ft 166kts
15-Nov-23 09:31 28.649938 -97.637049 273 2447ft 191kts
15-Nov-23 09:33 28.642846 -97.700688 260 2101ft 216kts
15-Nov-23 09:34 28.619404 -97.687043 82 1447ft 175kts
15-Nov-23 09:35 28.626568 -97.628848 107 1377ft 197kts
15-Nov-23 09:36 28.627344 -97.589367 319 997ft 130kts
15-Nov-23 09:37 28.633452 -97.625628 218 1003ft 126kts
15-Nov-23 09:38 28.616027 -97.602683 107 527ft 117kts
15-Nov-23 09:39 28.613091 -97.568614 80 1285ft 95kts
15-Nov-23 09:40 28.620650 -97.537409 77 2768ft 130kts
15-Nov-23 09:41 28.637040 -97.476292 72 2791ft 234kts
15-Nov-23 09:42 28.655144 -97.405651 75 2623ft 237kts
15-Nov-23 09:43 28.672092 -97.334919 75 2886ft 229kts
15-Nov-23 09:44 28.689280 -97.264350 78 2982ft 229kts
15-Nov-23 09:45 28.649478 -97.217479 166 3095ft 237kts
15-Nov-23 09:46 28.580959 -97.213266 177 2624ft 240kts
15-Nov-23 09:47 28.514275 -97.216406 180 2365ft 247kts
15-Nov-23 09:48 28.443725 -97.224995 186 2453ft 255kts
15-Nov-23 09:49 28.376187 -97.250399 199 2389ft 265kts
15-Nov-23 09:50 28.309595 -97.280697 198 2358ft 244kts
15-Nov-23 09:51 28.243125 -97.304141 191 2226ft 255kts
15-Nov-23 09:52 28.174641 -97.297715 163 2272ft 258kts
15-Nov-23 09:53 28.106000 -97.276339 154 2396ft 252kts
15-Nov-23 09:54 28.041206 -97.244155 156 2510ft 249kts
15-Nov-23 09:55 27.975456 -97.220691 165 970ft 208kts
15-Nov-23 09:56 27.924255 -97.218015 147 742ft 204kts
15-Nov-23 09:56 27.919253 -97.199617 309 527ft 127kts
15-Nov-23 09:58 27.912030 -97.210353 140 143ft 112kts
15-Nov-23 09:59 27.887706 -97.177050 124 927ft 180kts
15-Nov-23 10:00 27.834903 -97.166009 179 896ft 210kts
15-Nov-23 10:01 27.776329 -97.167716 181 1174ft 209kts
15-Nov-23 10:01 27.746042 -97.200964 257 829ft 195kts
15-Nov-23 10:02 27.733604 -97.263954 258 982ft 210kts
15-Nov-23 10:04 27.696271 -97.287327 136 847ft 187kts
15-Nov-23 10:05 27.702324 -97.274297 324 505ft 114kts
15-Nov-23 10:06 27.695057 -97.291206 137 62ft 105kts
15-Nov-23 10:06 27.687652 -97.281461 56 22ft 9kts
15-Nov-23 10:16 27.689269 -97.282258 0 22ft 0kts
15-Nov-23 10:17 27.689271 -97.282258 0 22ft 0kts
15-Nov-23 10:18 27.688704 -97.281913 133 22ft 12kts
15-Nov-23 10:19 27.685627 -97.283811 235 22ft 22kts
15-Nov-23 10:20 27.685659 -97.287294 275 22ft 0kts

Navigation Log

Ident Type
Flight plan parsing failed, navigation log unavailable